sensor_id;sensor_type;location;lat;lon;timestamp;P1;P4;P2;P0;N10;N4;N25;N1;N05;TS
66834;SPS30;53743;51.100;5.874;2022-09-17T00:00:12;2.10;2.01;1.83;1.53;12.25;12.24;12.20;11.96;10.22;0.57
66834;SPS30;53743;51.100;5.874;2022-09-17T00:01:15;1.89;1.81;1.64;1.37;10.92;10.91;10.87;10.65;9.09;0.57
66834;SPS30;53743;51.100;5.874;2022-09-17T00:02:20;1.74;1.67;1.52;1.28;10.20;10.19;10.16;9.96;8.52;0.55
66834;SPS30;53743;51.100;5.874;2022-09-17T00:03:21;1.43;1.37;1.27;1.08;8.60;8.60;8.57;8.42;7.24;0.54
66834;SPS30;53743;51.100;5.874;2022-09-17T00:04:22;1.69;1.63;1.50;1.28;10.23;10.23;10.20;10.03;8.62;0.54
66834;SPS30;53743;51.100;5.874;2022-09-17T00:05:23;1.67;1.61;1.49;1.28;10.20;10.19;10.16;10.00;8.62;0.55
66834;SPS30;53743;51.100;5.874;2022-09-17T00:06:24;1.62;1.56;1.46;1.26;10.03;10.03;10.00;9.85;8.51;0.54
66834;SPS30;53743;51.100;5.874;2022-09-17T00:07:26;1.68;1.62;1.50;1.29;10.30;10.30;10.27;10.11;8.71;0.54
66834;SPS30;53743;51.100;5.874;2022-09-17T00:08:28;1.83;1.77;1.64;1.40;11.19;11.19;11.15;10.98;9.45;0.53
66834;SPS30;53743;51.100;5.874;2022-09-17T00:09:29;1.75;1.68;1.56;1.33;10.61;10.60;10.57;10.39;8.94;0.54
66834;SPS30;53743;51.100;5.874;2022-09-17T00:10:30;1.81;1.74;1.61;1.37;10.98;10.97;10.93;10.75;9.25;0.55
66834;SPS30;53743;51.100;5.874;2022-09-17T00:11:33;1.89;1.81;1.67;1.42;11.34;11.33;11.29;11.10;9.53;0.56
66834;SPS30;53743;51.100;5.874;2022-09-17T00:12:37;1.59;1.53;1.41;1.19;9.54;9.54;9.51;9.34;8.02;0.56
66834;SPS30;53743;51.100;5.874;2022-09-17T00:13:38;1.23;1.18;1.09;0.93;7.43;7.42;7.40;7.27;6.26;0.56
66834;SPS30;53743;51.100;5.874;2022-09-17T00:14:40;1.36;1.31;1.21;1.04;8.29;8.29;8.27;8.13;7.00;0.56
66834;SPS30;53743;51.100;5.874;2022-09-17T00:15:41;1.86;1.79;1.65;1.40;11.21;11.20;11.17;10.98;9.43;0.56
66834;SPS30;53743;51.100;5.874;2022-09-17T00:16:46;1.48;1.42;1.31;1.11;8.87;8.86;8.83;8.68;7.46;0.56
66834;SPS30;53743;51.100;5.874;2022-09-17T00:17:52;1.51;1.45;1.33;1.13;9.01;9.01;8.98;8.82;7.56;0.57
66834;SPS30;53743;51.100;5.874;2022-09-17T00:18:57;1.58;1.51;1.37;1.14;9.10;9.09;9.05;8.87;7.57;0.58
66834;SPS30;53743;51.100;5.874;2022-09-17T00:20:00;1.67;1.60;1.45;1.19;9.56;9.55;9.51;9.31;7.93;0.59
66834;SPS30;53743;51.100;5.874;2022-09-17T00:21:01;1.74;1.66;1.50;1.25;9.97;9.96;9.92;9.71;8.28;0.58
66834;SPS30;53743;51.100;5.874;2022-09-17T00:22:03;1.45;1.39;1.26;1.05;8.40;8.39;8.36;8.19;6.99;0.57
66834;SPS30;53743;51.100;5.874;2022-09-17T00:23:04;1.52;1.45;1.32;1.11;8.85;8.85;8.82;8.64;7.39;0.57
66834;SPS30;53743;51.100;5.874;2022-09-17T00:24:05;1.36;1.30;1.19;1.00;7.96;7.96;7.93;7.77;6.65;0.57
66834;SPS30;53743;51.100;5.874;2022-09-17T00:25:06;1.67;1.60;1.47;1.23;9.85;9.84;9.81;9.62;8.24;0.57
66834;SPS30;53743;51.100;5.874;2022-09-17T00:26:07;1.59;1.53;1.40;1.19;9.48;9.48;9.45;9.28;7.96;0.57
66834;SPS30;53743;51.100;5.874;2022-09-17T00:27:08;2.15;2.07;1.90;1.61;12.84;12.84;12.79;12.57;10.78;0.55
66834;SPS30;53743;51.100;5.874;2022-09-17T00:28:09;2.13;2.05;1.87;1.57;12.57;12.56;12.51;12.28;10.51;0.55
66834;SPS30;53743;51.100;5.874;2022-09-17T00:29:12;1.70;1.63;1.49;1.24;9.95;9.94;9.90;9.71;8.30;0.55
66834;SPS30;53743;51.100;5.874;2022-09-17T00:30:13;1.30;1.24;1.13;0.94;7.52;7.51;7.49;7.33;6.26;0.55
66834;SPS30;53743;51.100;5.874;2022-09-17T00:31:14;1.31;1.25;1.14;0.95;7.58;7.57;7.54;7.39;6.30;0.56
66834;SPS30;53743;51.100;5.874;2022-09-17T00:32:14;1.56;1.50;1.36;1.14;9.08;9.08;9.04;8.86;7.57;0.56
66834;SPS30;53743;51.100;5.874;2022-09-17T00:33:16;1.59;1.52;1.38;1.14;9.15;9.14;9.10;8.92;7.61;0.56
66834;SPS30;53743;51.100;5.874;2022-09-17T00:34:17;1.69;1.61;1.46;1.21;9.65;9.64;9.60;9.40;8.01;0.57
66834;SPS30;53743;51.100;5.874;2022-09-17T00:35:18;1.52;1.45;1.30;1.06;8.51;8.50;8.46;8.27;7.02;0.59
66834;SPS30;53743;51.100;5.874;2022-09-17T00:36:19;1.90;1.81;1.62;1.33;10.63;10.62;10.58;10.34;8.77;0.59
66834;SPS30;53743;51.100;5.874;2022-09-17T00:37:20;1.79;1.70;1.54;1.26;10.10;10.10;10.06;9.83;8.36;0.58
66834;SPS30;53743;51.100;5.874;2022-09-17T00:38:22;1.64;1.56;1.42;1.17;9.39;9.38;9.34;9.15;7.80;0.56
66834;SPS30;53743;51.100;5.874;2022-09-17T00:39:22;1.91;1.82;1.66;1.38;11.03;11.02;10.98;10.76;9.18;0.57
66834;SPS30;53743;51.100;5.874;2022-09-17T00:40:23;1.58;1.51;1.37;1.13;9.06;9.05;9.02;8.83;7.52;0.58
66834;SPS30;53743;51.100;5.874;2022-09-17T00:41:25;1.80;1.71;1.53;1.24;9.90;9.89;9.84;9.60;8.13;0.59
66834;SPS30;53743;51.100;5.874;2022-09-17T00:42:29;1.64;1.56;1.39;1.12;8.93;8.92;8.88;8.65;7.31;0.59
66834;SPS30;53743;51.100;5.874;2022-09-17T00:43:44;1.94;1.84;1.65;1.34;10.70;10.69;10.65;10.39;8.80;0.58
66834;SPS30;53743;51.100;5.874;2022-09-17T00:44:51;1.38;1.31;1.18;0.96;7.68;7.67;7.64;7.46;6.33;0.58
66834;SPS30;53743;51.100;5.874;2022-09-17T00:45:56;1.43;1.37;1.23;1.01;8.10;8.10;8.06;7.89;6.70;0.58
66834;SPS30;53743;51.100;5.874;2022-09-17T00:46:57;1.95;1.86;1.68;1.38;11.03;11.02;10.97;10.73;9.13;0.58
66834;SPS30;53743;51.100;5.874;2022-09-17T00:48:02;1.83;1.74;1.57;1.30;10.37;10.36;10.32;10.10;8.59;0.57
66834;SPS30;53743;51.100;5.874;2022-09-17T00:49:10;1.60;1.53;1.38;1.14;9.16;9.15;9.11;8.92;7.60;0.57
66834;SPS30;53743;51.100;5.874;2022-09-17T00:50:26;1.56;1.49;1.35;1.11;8.89;8.88;8.84;8.65;7.37;0.58
66834;SPS30;53743;51.100;5.874;2022-09-17T00:51:41;1.66;1.58;1.42;1.17;9.33;9.32;9.28;9.07;7.70;0.58
66834;SPS30;53743;51.100;5.874;2022-09-17T00:52:58;1.71;1.62;1.46;1.20;9.56;9.55;9.51;9.29;7.89;0.58
66834;SPS30;53743;51.100;5.874;2022-09-17T00:54:07;1.70;1.61;1.44;1.17;9.38;9.37;9.33;9.11;7.71;0.59
66834;SPS30;53743;51.100;5.874;2022-09-17T00:55:13;1.85;1.76;1.58;1.29;10.34;10.34;10.29;10.05;8.53;0.58
66834;SPS30;53743;51.100;5.874;2022-09-17T00:56:25;1.83;1.74;1.57;1.28;10.24;10.23;10.19;9.95;8.44;0.58
66834;SPS30;53743;51.100;5.874;2022-09-17T00:57:32;1.80;1.71;1.52;1.23;9.86;9.85;9.80;9.56;8.08;0.59
66834;SPS30;53743;51.100;5.874;2022-09-17T00:58:34;1.75;1.66;1.50;1.22;9.78;9.77;9.73;9.50;8.06;0.58
66834;SPS30;53743;51.100;5.874;2022-09-17T00:59:37;2.00;1.90;1.71;1.40;11.22;11.21;11.16;10.91;9.26;0.58
66834;SPS30;53743;51.100;5.874;2022-09-17T01:00:39;1.68;1.60;1.44;1.18;9.42;9.41;9.37;9.16;7.77;0.59
66834;SPS30;53743;51.100;5.874;2022-09-17T01:01:40;1.46;1.39;1.26;1.03;8.24;8.23;8.20;8.01;6.81;0.60
66834;SPS30;53743;51.100;5.874;2022-09-17T01:02:41;1.85;1.76;1.60;1.32;10.54;10.53;10.49;10.26;8.74;0.59
66834;SPS30;53743;51.100;5.874;2022-09-17T01:03:43;2.11;2.01;1.82;1.51;12.07;12.06;12.01;11.76;10.02;0.60
66834;SPS30;53743;51.100;5.874;2022-09-17T01:04:44;1.75;1.68;1.53;1.29;10.28;10.27;10.23;10.04;8.59;0.58
66834;SPS30;53743;51.100;5.874;2022-09-17T01:05:46;1.90;1.83;1.67;1.41;11.24;11.23;11.19;10.98;9.40;0.59
66834;SPS30;53743;51.100;5.874;2022-09-17T01:07:14;2.21;2.12;1.95;1.66;13.25;13.24;13.20;12.97;11.14;0.58
66834;SPS30;53743;51.100;5.874;2022-09-17T01:11:51;2.31;2.20;1.99;1.63;13.07;13.06;13.00;12.72;10.81;0.60
66834;SPS30;53743;51.100;5.874;2022-09-17T01:13:12;2.04;1.95;1.77;1.48;11.80;11.80;11.75;11.52;9.83;0.59
66834;SPS30;53743;51.100;5.874;2022-09-17T01:14:51;1.89;1.80;1.63;1.35;10.82;10.81;10.77;10.54;8.99;0.60
66834;SPS30;53743;51.100;5.874;2022-09-17T01:16:19;2.32;2.21;2.00;1.64;13.12;13.11;13.05;12.77;10.85;0.60
66834;SPS30;53743;51.100;5.874;2022-09-17T01:25:55;2.38;2.28;2.07;1.72;13.78;13.76;13.71;13.44;11.47;0.58
66834;SPS30;53743;51.100;5.874;2022-09-17T01:27:40;2.03;1.94;1.75;1.45;11.58;11.57;11.52;11.28;9.61;0.59
66834;SPS30;53743;51.100;5.874;2022-09-17T01:32:44;1.73;1.66;1.52;1.28;10.25;10.25;10.21;10.03;8.60;0.56
66834;SPS30;53743;51.100;5.874;2022-09-17T01:39:31;2.20;2.09;1.87;1.52;12.15;12.14;12.09;11.79;9.98;0.58
66834;SPS30;53743;51.100;5.874;2022-09-17T01:42:23;1.62;1.55;1.40;1.15;9.17;9.16;9.13;8.92;7.58;0.58
66834;SPS30;53743;51.100;5.874;2022-09-17T01:43:49;2.02;1.92;1.73;1.43;11.40;11.39;11.35;11.10;9.43;0.58
66834;SPS30;53743;51.100;5.874;2022-09-17T01:46:56;1.89;1.80;1.61;1.30;10.42;10.42;10.37;10.12;8.56;0.58
66834;SPS30;53743;51.100;5.874;2022-09-17T01:48:26;1.54;1.46;1.32;1.08;8.66;8.65;8.62;8.42;7.16;0.58
66834;SPS30;53743;51.100;5.874;2022-09-17T01:49:34;1.48;1.41;1.28;1.05;8.39;8.38;8.35;8.16;6.94;0.58
66834;SPS30;53743;51.100;5.874;2022-09-17T01:50:41;1.87;1.78;1.59;1.30;10.39;10.38;10.34;10.09;8.56;0.59
66834;SPS30;53743;51.100;5.874;2022-09-17T01:51:52;1.67;1.57;1.39;1.10;8.84;8.83;8.78;8.54;7.18;0.61
66834;SPS30;53743;51.100;5.874;2022-09-17T01:52:55;2.16;2.03;1.78;1.41;11.26;11.25;11.19;10.87;9.11;0.62
66834;SPS30;53743;51.100;5.874;2022-09-17T01:54:06;1.66;1.57;1.38;1.10;8.78;8.77;8.73;8.49;7.13;0.62
66834;SPS30;53743;51.100;5.874;2022-09-17T01:55:18;2.34;2.21;1.96;1.56;12.47;12.46;12.40;12.06;10.15;0.61
66834;SPS30;53743;51.100;5.874;2022-09-17T01:56:32;2.04;1.94;1.74;1.41;11.31;11.30;11.25;10.98;9.31;0.59
66834;SPS30;53743;51.100;5.874;2022-09-17T01:57:54;1.78;1.69;1.52;1.24;9.93;9.92;9.88;9.64;8.18;0.59
66834;SPS30;53743;51.100;5.874;2022-09-17T02:00:12;1.95;1.85;1.65;1.33;10.66;10.65;10.60;10.34;8.74;0.59
66834;SPS30;53743;51.100;5.874;2022-09-17T02:01:16;1.66;1.57;1.40;1.12;8.96;8.95;8.91;8.68;7.32;0.60
66834;SPS30;53743;51.100;5.874;2022-09-17T02:02:31;1.62;1.53;1.37;1.10;8.80;8.79;8.75;8.53;7.20;0.60
66834;SPS30;53743;51.100;5.874;2022-09-17T02:04:01;2.23;2.12;1.91;1.56;12.48;12.47;12.42;12.14;10.31;0.58
66834;SPS30;53743;51.100;5.874;2022-09-17T02:05:33;1.27;1.21;1.08;0.88;7.01;7.01;6.98;6.81;5.77;0.58
66834;SPS30;53743;51.100;5.874;2022-09-17T02:06:44;1.85;1.75;1.55;1.24;9.95;9.94;9.89;9.63;8.11;0.60
66834;SPS30;53743;51.100;5.874;2022-09-17T02:07:59;1.83;1.72;1.51;1.19;9.49;9.48;9.42;9.15;7.65;0.62
66834;SPS30;53743;51.100;5.874;2022-09-17T02:09:11;1.89;1.77;1.55;1.21;9.71;9.70;9.64;9.35;7.81;0.62
66834;SPS30;53743;51.100;5.874;2022-09-17T02:10:26;2.50;2.35;2.04;1.59;12.71;12.69;12.62;12.22;10.19;0.63
66834;SPS30;53743;51.100;5.874;2022-09-17T02:11:36;1.97;1.84;1.60;1.24;9.92;9.91;9.85;9.53;7.93;0.65
66834;SPS30;53743;51.100;5.874;2022-09-17T02:12:47;2.03;1.89;1.63;1.24;9.92;9.91;9.85;9.50;7.86;0.66
66834;SPS30;53743;51.100;5.874;2022-09-17T02:14:07;1.96;1.83;1.57;1.20;9.58;9.57;9.50;9.17;7.59;0.66
66834;SPS30;53743;51.100;5.874;2022-09-17T02:15:21;1.64;1.53;1.30;0.97;7.76;7.75;7.69;7.40;6.07;0.67
66834;SPS30;53743;51.100;5.874;2022-09-17T02:16:34;1.44;1.34;1.14;0.85;6.83;6.83;6.78;6.52;5.35;0.66
66834;SPS30;53743;51.100;5.874;2022-09-17T02:19:22;1.69;1.57;1.33;0.99;7.95;7.93;7.88;7.57;6.21;0.67
66834;SPS30;53743;51.100;5.874;2022-09-17T02:20:34;1.66;1.53;1.29;0.95;7.61;7.60;7.54;7.23;5.90;0.68
66834;SPS30;53743;51.100;5.874;2022-09-17T02:23:26;2.31;2.14;1.80;1.32;10.56;10.54;10.46;10.02;8.16;0.68
66834;SPS30;53743;51.100;5.874;2022-09-17T02:26:11;2.01;1.85;1.54;1.11;8.88;8.86;8.79;8.39;6.78;0.69
66834;SPS30;53743;51.100;5.874;2022-09-17T02:29:25;2.26;2.07;1.71;1.20;9.65;9.64;9.55;9.08;7.28;0.71
66834;SPS30;53743;51.100;5.874;2022-09-17T02:30:33;2.32;2.12;1.73;1.19;9.51;9.49;9.39;8.89;7.04;0.73
66834;SPS30;53743;51.100;5.874;2022-09-17T02:31:34;1.84;1.68;1.35;0.91;7.33;7.31;7.24;6.82;5.36;0.74
66834;SPS30;53743;51.100;5.874;2022-09-17T02:32:35;2.55;2.32;1.88;1.28;10.27;10.25;10.15;9.58;7.56;0.73
66834;SPS30;53743;51.100;5.874;2022-09-17T02:33:36;1.67;1.52;1.23;0.84;6.71;6.70;6.63;6.26;4.94;0.73
66834;SPS30;53743;51.100;5.874;2022-09-17T02:34:42;2.06;1.87;1.51;1.01;8.11;8.09;8.00;7.53;5.90;0.74
66834;SPS30;53743;51.100;5.874;2022-09-17T02:35:43;2.30;2.09;1.68;1.12;8.96;8.94;8.84;8.31;6.49;0.74
66834;SPS30;53743;51.100;5.874;2022-09-17T02:36:45;2.15;1.96;1.59;1.08;8.68;8.67;8.58;8.10;6.39;0.72
66834;SPS30;53743;51.100;5.874;2022-09-17T02:37:46;2.13;1.94;1.57;1.06;8.52;8.51;8.42;7.94;6.25;0.73
66834;SPS30;53743;51.100;5.874;2022-09-17T02:38:47;1.65;1.50;1.22;0.83;6.68;6.67;6.60;6.23;4.93;0.72
66834;SPS30;53743;51.100;5.874;2022-09-17T02:39:57;2.01;1.84;1.50;1.03;8.25;8.23;8.15;7.71;6.11;0.72
66834;SPS30;53743;51.100;5.874;2022-09-17T02:41:05;1.92;1.75;1.42;0.97;7.80;7.78;7.71;7.28;5.76;0.73
66834;SPS30;53743;51.100;5.874;2022-09-17T02:42:21;2.22;2.02;1.63;1.09;8.74;8.72;8.62;8.12;6.36;0.74
66834;SPS30;53743;51.100;5.874;2022-09-17T02:52:59;1.97;1.78;1.42;0.94;7.52;7.50;7.42;6.95;5.40;0.72
66834;SPS30;53743;51.100;5.874;2022-09-17T02:54:23;1.51;1.37;1.10;0.72;5.79;5.78;5.72;5.36;4.17;0.73
66834;SPS30;53743;51.100;5.874;2022-09-17T02:58:11;2.21;2.01;1.61;1.07;8.56;8.54;8.45;7.94;6.19;0.73
66834;SPS30;53743;51.100;5.874;2022-09-17T02:59:28;1.95;1.77;1.42;0.94;7.57;7.55;7.47;7.02;5.48;0.73
66834;SPS30;53743;51.100;5.874;2022-09-17T03:00:42;1.95;1.77;1.42;0.95;7.64;7.62;7.54;7.09;5.55;0.73
66834;SPS30;53743;51.100;5.874;2022-09-17T03:01:49;1.98;1.80;1.45;0.97;7.78;7.76;7.68;7.23;5.66;0.72
66834;SPS30;53743;51.100;5.874;2022-09-17T03:03:09;1.81;1.64;1.32;0.88;7.07;7.05;6.98;6.56;5.13;0.74
66834;SPS30;53743;51.100;5.874;2022-09-17T03:04:20;1.83;1.66;1.33;0.89;7.15;7.14;7.06;6.64;5.19;0.75
66834;SPS30;53743;51.100;5.874;2022-09-17T03:05:28;1.92;1.74;1.39;0.92;7.39;7.37;7.29;6.84;5.33;0.75
66834;SPS30;53743;51.100;5.874;2022-09-17T03:06:31;2.37;2.15;1.71;1.13;9.06;9.04;8.94;8.38;6.51;0.75
66834;SPS30;53743;51.100;5.874;2022-09-17T03:07:32;1.97;1.79;1.43;0.94;7.55;7.53;7.45;6.98;5.43;0.75
66834;SPS30;53743;51.100;5.874;2022-09-17T03:08:34;2.13;1.92;1.52;0.98;7.90;7.88;7.79;7.27;5.60;0.76
66834;SPS30;53743;51.100;5.874;2022-09-17T03:09:40;2.19;1.98;1.56;1.00;8.02;8.00;7.90;7.36;5.64;0.78
66834;SPS30;53743;51.100;5.874;2022-09-17T03:10:42;1.75;1.59;1.26;0.81;6.54;6.52;6.45;6.02;4.64;0.77
66834;SPS30;53743;51.100;5.874;2022-09-17T03:11:43;2.17;1.97;1.56;1.02;8.19;8.17;8.08;7.56;5.85;0.77
66834;SPS30;53743;51.100;5.874;2022-09-17T03:12:44;2.17;1.96;1.55;1.01;8.08;8.06;7.96;7.44;5.73;0.78
66834;SPS30;53743;51.100;5.874;2022-09-17T03:13:45;1.91;1.72;1.36;0.87;6.95;6.93;6.85;6.38;4.87;0.79
66834;SPS30;53743;51.100;5.874;2022-09-17T03:14:45;2.33;2.10;1.66;1.06;8.54;8.52;8.42;7.85;6.01;0.78
66834;SPS30;53743;51.100;5.874;2022-09-17T03:15:46;1.99;1.80;1.42;0.92;7.39;7.37;7.28;6.80;5.24;0.78
66834;SPS30;53743;51.100;5.874;2022-09-17T03:16:47;1.76;1.59;1.26;0.81;6.47;6.45;6.37;5.94;4.56;0.79
66834;SPS30;53743;51.100;5.874;2022-09-17T03:17:47;1.86;1.67;1.30;0.82;6.57;6.56;6.47;6.00;4.55;0.81
66834;SPS30;53743;51.100;5.874;2022-09-17T03:18:48;2.11;1.90;1.48;0.93;7.45;7.43;7.33;6.80;5.14;0.81
66834;SPS30;53743;51.100;5.874;2022-09-17T03:19:48;1.62;1.46;1.14;0.72;5.76;5.74;5.67;5.26;3.99;0.81
66834;SPS30;53743;51.100;5.874;2022-09-17T03:20:49;1.93;1.73;1.35;0.85;6.79;6.77;6.68;6.20;4.69;0.81
66834;SPS30;53743;51.100;5.874;2022-09-17T03:21:50;1.81;1.63;1.28;0.80;6.44;6.43;6.34;5.89;4.47;0.81
66834;SPS30;53743;51.100;5.874;2022-09-17T03:22:50;1.78;1.60;1.25;0.78;6.28;6.26;6.18;5.73;4.33;0.82
66834;SPS30;53743;51.100;5.874;2022-09-17T03:23:51;1.92;1.73;1.35;0.84;6.77;6.75;6.66;6.18;4.67;0.82
66834;SPS30;53743;51.100;5.874;2022-09-17T03:24:52;2.28;2.05;1.60;1.00;8.01;7.99;7.89;7.31;5.53;0.82
66834;SPS30;53743;51.100;5.874;2022-09-17T03:25:53;2.23;2.01;1.56;0.98;7.83;7.81;7.71;7.14;5.39;0.82
66834;SPS30;53743;51.100;5.874;2022-09-17T03:26:54;2.01;1.81;1.41;0.88;7.06;7.04;6.95;6.44;4.86;0.82
66834;SPS30;53743;51.100;5.874;2022-09-17T03:27:55;2.57;2.31;1.79;1.10;8.86;8.83;8.71;8.05;6.03;0.83
66834;SPS30;53743;51.100;5.874;2022-09-17T03:28:55;2.13;1.91;1.49;0.92;7.38;7.36;7.26;6.71;5.04;0.82
66834;SPS30;53743;51.100;5.874;2022-09-17T03:29:57;1.86;1.68;1.31;0.82;6.58;6.56;6.47;6.00;4.54;0.82
66834;SPS30;53743;51.100;5.874;2022-09-17T03:30:58;1.84;1.65;1.28;0.80;6.40;6.39;6.30;5.83;4.39;0.82
66834;SPS30;53743;51.100;5.874;2022-09-17T03:31:59;1.95;1.75;1.37;0.85;6.85;6.84;6.75;6.25;4.72;0.81
66834;SPS30;53743;51.100;5.874;2022-09-17T03:33:00;1.91;1.72;1.36;0.86;6.93;6.91;6.82;6.35;4.84;0.79
66834;SPS30;53743;51.100;5.874;2022-09-17T03:34:00;1.71;1.54;1.21;0.77;6.15;6.14;6.06;5.63;4.29;0.79
66834;SPS30;53743;51.100;5.874;2022-09-17T03:35:01;1.80;1.62;1.26;0.78;6.29;6.27;6.19;5.73;4.32;0.81
66834;SPS30;53743;51.100;5.874;2022-09-17T03:36:02;1.76;1.58;1.23;0.76;6.13;6.11;6.03;5.58;4.20;0.81
66834;SPS30;53743;51.100;5.874;2022-09-17T03:37:03;2.12;1.91;1.49;0.94;7.52;7.51;7.41;6.87;5.21;0.80
66834;SPS30;53743;51.100;5.874;2022-09-17T03:38:04;2.76;2.49;1.95;1.23;9.88;9.85;9.73;9.04;6.86;0.80
66834;SPS30;53743;51.100;5.874;2022-09-17T03:39:04;2.48;2.23;1.73;1.08;8.67;8.65;8.53;7.90;5.95;0.81
66834;SPS30;53743;51.100;5.874;2022-09-17T03:40:05;1.88;1.69;1.32;0.83;6.66;6.64;6.56;6.08;4.60;0.80
66834;SPS30;53743;51.100;5.874;2022-09-17T03:41:07;1.74;1.57;1.24;0.79;6.33;6.31;6.23;5.80;4.43;0.79
66834;SPS30;53743;51.100;5.874;2022-09-17T03:42:07;2.22;2.00;1.58;1.01;8.09;8.07;7.97;7.42;5.68;0.79
66834;SPS30;53743;51.100;5.874;2022-09-17T03:43:08;1.97;1.78;1.40;0.88;7.10;7.08;6.99;6.50;4.95;0.80
66834;SPS30;53743;51.100;5.874;2022-09-17T03:44:09;2.08;1.88;1.48;0.94;7.58;7.57;7.47;6.96;5.32;0.78
66834;SPS30;53743;51.100;5.874;2022-09-17T03:45:10;2.07;1.87;1.47;0.94;7.54;7.52;7.43;6.92;5.28;0.78
66834;SPS30;53743;51.100;5.874;2022-09-17T03:46:11;2.37;2.14;1.69;1.08;8.65;8.62;8.52;7.94;6.07;0.78
66834;SPS30;53743;51.100;5.874;2022-09-17T03:47:12;2.68;2.42;1.90;1.21;9.70;9.67;9.55;8.89;6.78;0.79
66834;SPS30;53743;51.100;5.874;2022-09-17T03:48:15;2.03;1.83;1.42;0.89;7.16;7.14;7.04;6.53;4.94;0.80
66834;SPS30;53743;51.100;5.874;2022-09-17T03:49:16;2.11;1.90;1.48;0.93;7.45;7.43;7.34;6.80;5.15;0.80
66834;SPS30;53743;51.100;5.874;2022-09-17T03:50:17;1.38;1.24;0.97;0.61;4.89;4.88;4.82;4.47;3.39;0.80
66834;SPS30;53743;51.100;5.874;2022-09-17T03:51:17;2.27;2.04;1.60;1.01;8.13;8.11;8.01;7.44;5.66;0.79
66834;SPS30;53743;51.100;5.874;2022-09-17T03:52:18;2.14;1.92;1.50;0.94;7.52;7.50;7.40;6.86;5.18;0.80
66834;SPS30;53743;51.100;5.874;2022-09-17T03:53:19;1.68;1.51;1.18;0.74;5.96;5.94;5.86;5.44;4.12;0.80
66834;SPS30;53743;51.100;5.874;2022-09-17T03:54:20;1.37;1.24;0.97;0.62;4.95;4.94;4.88;4.54;3.46;0.78
66834;SPS30;53743;51.100;5.874;2022-09-17T03:55:22;2.04;1.85;1.46;0.94;7.54;7.52;7.43;6.93;5.32;0.78
66834;SPS30;53743;51.100;5.874;2022-09-17T03:56:22;2.09;1.88;1.48;0.94;7.52;7.50;7.41;6.89;5.24;0.79
66834;SPS30;53743;51.100;5.874;2022-09-17T03:57:23;1.84;1.65;1.29;0.80;6.45;6.43;6.35;5.88;4.44;0.80
66834;SPS30;53743;51.100;5.874;2022-09-17T03:58:23;2.32;2.08;1.62;1.00;8.01;7.99;7.88;7.28;5.46;0.81
66834;SPS30;53743;51.100;5.874;2022-09-17T03:59:24;1.99;1.79;1.39;0.85;6.87;6.85;6.75;6.24;4.68;0.80
66834;SPS30;53743;51.100;5.874;2022-09-17T04:00:26;1.96;1.76;1.38;0.86;6.92;6.90;6.81;6.31;4.77;0.79
66834;SPS30;53743;51.100;5.874;2022-09-17T04:01:27;2.33;2.10;1.64;1.03;8.29;8.27;8.16;7.58;5.74;0.79
66834;SPS30;53743;51.100;5.874;2022-09-17T04:02:28;1.93;1.74;1.36;0.86;6.89;6.88;6.79;6.30;4.79;0.78
66834;SPS30;53743;51.100;5.874;2022-09-17T04:03:29;1.77;1.60;1.25;0.79;6.36;6.34;6.26;5.81;4.42;0.78
66834;SPS30;53743;51.100;5.874;2022-09-17T04:04:31;1.67;1.50;1.18;0.76;6.08;6.07;5.99;5.58;4.27;0.77
66834;SPS30;53743;51.100;5.874;2022-09-17T04:05:31;1.85;1.67;1.32;0.85;6.84;6.82;6.74;6.30;4.84;0.77
66834;SPS30;53743;51.100;5.874;2022-09-17T04:06:32;1.91;1.73;1.38;0.90;7.21;7.20;7.11;6.66;5.15;0.77
66834;SPS30;53743;51.100;5.874;2022-09-17T04:07:33;2.12;1.91;1.51;0.97;7.75;7.73;7.63;7.11;5.45;0.79
66834;SPS30;53743;51.100;5.874;2022-09-17T04:08:34;1.92;1.73;1.36;0.87;6.95;6.93;6.85;6.37;4.86;0.79
66834;SPS30;53743;51.100;5.874;2022-09-17T04:09:35;1.20;1.08;0.84;0.53;4.27;4.26;4.21;3.91;2.97;0.80
66834;SPS30;53743;51.100;5.874;2022-09-17T04:10:36;1.63;1.46;1.14;0.72;5.74;5.73;5.65;5.24;3.96;0.80
66834;SPS30;53743;51.100;5.874;2022-09-17T04:11:37;1.76;1.58;1.23;0.77;6.18;6.16;6.08;5.63;4.25;0.81
66834;SPS30;53743;51.100;5.874;2022-09-17T04:12:37;1.75;1.57;1.22;0.75;6.01;5.99;5.91;5.45;4.08;0.82
66834;SPS30;53743;51.100;5.874;2022-09-17T04:13:38;1.67;1.50;1.16;0.72;5.75;5.74;5.66;5.23;3.92;0.81
66834;SPS30;53743;51.100;5.874;2022-09-17T04:14:39;1.55;1.39;1.08;0.67;5.36;5.35;5.27;4.88;3.66;0.81
66834;SPS30;53743;51.100;5.874;2022-09-17T04:15:40;2.21;1.98;1.54;0.95;7.59;7.57;7.47;6.90;5.17;0.82
66834;SPS30;53743;51.100;5.874;2022-09-17T04:16:41;1.67;1.50;1.17;0.72;5.80;5.78;5.70;5.27;3.96;0.81
66834;SPS30;53743;51.100;5.874;2022-09-17T04:17:42;1.71;1.53;1.19;0.74;5.92;5.90;5.82;5.38;4.04;0.81
66834;SPS30;53743;51.100;5.874;2022-09-17T04:18:43;1.58;1.42;1.10;0.68;5.43;5.42;5.34;4.93;3.69;0.81
66834;SPS30;53743;51.100;5.874;2022-09-17T04:19:44;1.56;1.40;1.08;0.66;5.28;5.27;5.19;4.78;3.56;0.83
66834;SPS30;53743;51.100;5.874;2022-09-17T04:20:44;1.46;1.30;1.01;0.61;4.92;4.91;4.84;4.46;3.32;0.83
66834;SPS30;53743;51.100;5.874;2022-09-17T04:21:45;1.83;1.64;1.26;0.76;6.09;6.08;5.99;5.50;4.07;0.83
66834;SPS30;53743;51.100;5.874;2022-09-17T04:22:45;2.05;1.83;1.40;0.83;6.67;6.65;6.54;5.99;4.39;0.84
66834;SPS30;53743;51.100;5.874;2022-09-17T04:23:46;1.86;1.66;1.26;0.74;5.96;5.94;5.85;5.34;3.89;0.85
66834;SPS30;53743;51.100;5.874;2022-09-17T04:24:47;1.55;1.39;1.06;0.62;5.01;4.99;4.91;4.49;3.28;0.85
66834;SPS30;53743;51.100;5.874;2022-09-17T04:25:47;1.82;1.62;1.23;0.73;5.84;5.82;5.73;5.24;3.82;0.85
66834;SPS30;53743;51.100;5.874;2022-09-17T04:26:48;2.07;1.85;1.40;0.81;6.53;6.50;6.40;5.83;4.21;0.86
66834;SPS30;53743;51.100;5.874;2022-09-17T04:27:49;2.46;2.19;1.66;0.97;7.78;7.75;7.63;6.95;5.03;0.85
66834;SPS30;53743;51.100;5.874;2022-09-17T04:28:50;1.73;1.53;1.15;0.66;5.31;5.29;5.20;4.72;3.38;0.87
66834;SPS30;53743;51.100;5.874;2022-09-17T04:29:50;2.10;1.86;1.40;0.80;6.40;6.38;6.27;5.68;4.05;0.87
66834;SPS30;53743;51.100;5.874;2022-09-17T04:30:51;2.55;2.26;1.71;0.98;7.88;7.86;7.72;7.01;5.03;0.86
66834;SPS30;53743;51.100;5.874;2022-09-17T04:31:52;1.92;1.71;1.29;0.75;6.03;6.01;5.91;5.38;3.89;0.85
66834;SPS30;53743;51.100;5.874;2022-09-17T04:32:52;1.71;1.52;1.15;0.66;5.31;5.29;5.20;4.73;3.40;0.86
66834;SPS30;53743;51.100;5.874;2022-09-17T04:33:53;1.40;1.24;0.93;0.53;4.28;4.27;4.20;3.81;2.72;0.87
66834;SPS30;53743;51.100;5.874;2022-09-17T04:34:54;1.26;1.12;0.84;0.47;3.81;3.80;3.73;3.38;2.40;0.87
66834;SPS30;53743;51.100;5.874;2022-09-17T04:35:54;2.14;1.89;1.42;0.80;6.40;6.38;6.27;5.66;4.00;0.88
66834;SPS30;53743;51.100;5.874;2022-09-17T04:36:55;2.25;1.99;1.49;0.83;6.70;6.67;6.56;5.91;4.17;0.88
66834;SPS30;53743;51.100;5.874;2022-09-17T04:37:56;2.54;2.25;1.69;0.95;7.66;7.63;7.50;6.77;4.80;0.87
66834;SPS30;53743;51.100;5.874;2022-09-17T04:38:57;1.76;1.56;1.16;0.65;5.23;5.22;5.12;4.62;3.26;0.88
66834;SPS30;53743;51.100;5.874;2022-09-17T04:39:58;2.04;1.80;1.34;0.75;6.00;5.98;5.87;5.28;3.70;0.89
66834;SPS30;53743;51.100;5.874;2022-09-17T04:40:59;1.98;1.75;1.30;0.72;5.81;5.79;5.68;5.11;3.58;0.89
66834;SPS30;53743;51.100;5.874;2022-09-17T04:42:00;1.83;1.62;1.20;0.66;5.34;5.32;5.23;4.70;3.28;0.89
66834;SPS30;53743;51.100;5.874;2022-09-17T04:43:00;2.37;2.10;1.56;0.86;6.89;6.86;6.74;6.04;4.21;0.90
66834;SPS30;53743;51.100;5.874;2022-09-17T04:44:02;1.71;1.51;1.12;0.61;4.94;4.92;4.83;4.33;3.01;0.90
66834;SPS30;53743;51.100;5.874;2022-09-17T04:45:03;2.11;1.87;1.39;0.77;6.16;6.14;6.03;5.42;3.78;0.89
66834;SPS30;53743;51.100;5.874;2022-09-17T04:46:04;1.51;1.33;0.99;0.55;4.45;4.44;4.36;3.92;2.76;0.88
66834;SPS30;53743;51.100;5.874;2022-09-17T04:47:04;1.57;1.39;1.04;0.58;4.66;4.65;4.57;4.12;2.90;0.87
66834;SPS30;53743;51.100;5.874;2022-09-17T04:48:05;1.63;1.44;1.08;0.60;4.84;4.82;4.73;4.27;3.01;0.88
66834;SPS30;53743;51.100;5.874;2022-09-17T04:49:06;1.56;1.38;1.02;0.56;4.53;4.52;4.43;3.98;2.78;0.89
66834;SPS30;53743;51.100;5.874;2022-09-17T04:50:07;1.48;1.31;0.97;0.53;4.27;4.26;4.18;3.74;2.60;0.89
66834;SPS30;53743;51.100;5.874;2022-09-17T04:51:10;1.35;1.19;0.89;0.49;3.96;3.95;3.87;3.48;2.44;0.89
66834;SPS30;53743;51.100;5.874;2022-09-17T04:52:10;2.03;1.80;1.34;0.75;6.05;6.03;5.92;5.34;3.77;0.88
66834;SPS30;53743;51.100;5.874;2022-09-17T04:53:11;1.39;1.23;0.92;0.52;4.20;4.18;4.11;3.71;2.63;0.87
66834;SPS30;53743;51.100;5.874;2022-09-17T04:54:12;1.96;1.74;1.30;0.73;5.84;5.82;5.72;5.16;3.64;0.88
66834;SPS30;53743;51.100;5.874;2022-09-17T04:55:14;1.60;1.42;1.06;0.59;4.76;4.75;4.66;4.21;2.97;0.88
66834;SPS30;53743;51.100;5.874;2022-09-17T04:56:16;1.65;1.47;1.10;0.62;4.97;4.95;4.86;4.39;3.11;0.87
66834;SPS30;53743;51.100;5.874;2022-09-17T04:57:16;2.04;1.80;1.35;0.75;6.07;6.05;5.94;5.36;3.78;0.87